Lena-s. — V2EC7 — position and weather

sailwx.info

Track history (hours):
 
Tides and Currents Weather Stations Pressure Air Temp Water Temp Dewpoint Dewpoint Depression Visibility Wind Speed Wind Dir Waves Ship Positions

Lena-s.

Last reported at 2016-Jan-25 23:29 UTC. Time now 2016-Feb-10 20:06 UTC.
Position N 36°57' W 076°20'.
Warning: this ship's position is 15 days out of date.

Length 261 m; draft 9.5 m.

Type: Ship (hazmat cat D). MMSI: 305386000.

Date/timePositionNaut miles runAvg speedWind from/ knotsBaromVisibWave heightAir tempDewpointWater temp
2016-Jan-25 23:29N 36°57' W 076°20'2 0.2
2016-Jan-25 14:12N 36°56' W 076°20'0 0.0
2016-Jan-25 13:24N 36°56' W 076°20'0 0.0
2016-Jan-25 11:19N 36°56' W 076°20'4 5.5
2016-Jan-25 10:31N 36°60' W 076°18'368 7.6
2016-Jan-23 10:11N 31°58' W 080°34'6 9.8
2016-Jan-23 09:34N 31°57' W 080°41'1111.1
2016-Jan-23 08:33N 32°02' W 080°52'9 9.0
2016-Jan-23 07:34N 32°05' W 081°02'5 5.4
2016-Jan-23 06:33N 32°07' W 081°08'1 0.9
2016-Jan-23 05:32N 32°08' W 081°09'0 0.0
2016-Jan-23 04:32N 32°08' W 081°09'0 0.0
2016-Jan-23 03:32N 32°08' W 081°09'0 0.0
2016-Jan-23 02:32N 32°08' W 081°09'0 0.0
2016-Jan-23 01:32N 32°08' W 081°09'0 0.0
2016-Jan-23 00:32N 32°08' W 081°09'0 0.0
2016-Jan-22 23:32N 32°08' W 081°09'0 0.0
2016-Jan-22 22:32N 32°08' W 081°09'0 0.0
2016-Jan-22 21:32N 32°08' W 081°09'0 0.0
2016-Jan-22 20:32N 32°08' W 081°09'0 0.0
2016-Jan-22 19:32N 32°08' W 081°09'0 0.0
2016-Jan-22 18:32N 32°08' W 081°09'0 0.0
2016-Jan-22 17:32N 32°08' W 081°09'0 0.3
2016-Jan-22 16:33N 32°08' W 081°08'3 2.9
2016-Jan-22 15:33N 32°06' W 081°06'6 5.7
2016-Jan-22 14:33N 32°06' W 080°60'1110.7
2016-Jan-22 13:33N 32°01' W 080°48'1211.5
2016-Jan-22 12:33N 31°58' W 080°35'55614.2
2016-Jan-20 21:29N 39°28' W 073°54'1515.7
2016-Jan-20 20:33N 39°43' W 073°53'4212.7
2016-Jan-20 17:14N 40°25' W 073°49'6 8.5
2016-Jan-20 16:33N 40°29' W 073°55'1312.8
2016-Jan-20 15:33N 40°39' W 074°05'3 2.6
2016-Jan-20 14:31N 40°40' W 074°09'0 0.0
2016-Jan-20 13:31N 40°40' W 074°09'0 0.0
2016-Jan-20 12:31N 40°40' W 074°09'0 0.0
2016-Jan-20 11:31N 40°40' W 074°09'0 0.0
2016-Jan-20 10:31N 40°40' W 074°09'0 0.0
2016-Jan-20 09:31N 40°40' W 074°09'0 0.0
2016-Jan-20 08:31N 40°40' W 074°09'0 0.0
2016-Jan-20 07:31N 40°40' W 074°09'0 0.0
2016-Jan-20 06:31N 40°40' W 074°09'0 0.0
2016-Jan-20 05:31N 40°40' W 074°09'0 0.0
2016-Jan-20 04:31N 40°40' W 074°09'0 0.0
2016-Jan-20 03:31N 40°40' W 074°09'0 0.0
2016-Jan-20 02:31N 40°40' W 074°09'0 0.0
2016-Jan-20 01:31N 40°40' W 074°09'0 0.0
2016-Jan-20 00:31N 40°40' W 074°09'0 0.0
2016-Jan-19 23:31N 40°40' W 074°09'0 0.0
2016-Jan-19 22:31N 40°40' W 074°09'0 0.0
2016-Jan-19 21:31N 40°40' W 074°09'0 0.0
2016-Jan-19 20:31N 40°40' W 074°09'0 0.0
2016-Jan-19 19:25N 40°40' W 074°09'0 0.0
2016-Jan-19 18:31N 40°40' W 074°09'0 0.0
2016-Jan-19 17:31N 40°40' W 074°09'0 0.0
2016-Jan-19 16:31N 40°40' W 074°09'0 0.0
2016-Jan-19 15:31N 40°40' W 074°09'0 0.0
2016-Jan-19 14:31N 40°40' W 074°09'0 0.0
2016-Jan-19 13:31N 40°40' W 074°09'0 0.0
2016-Jan-19 12:31N 40°40' W 074°09'0 0.0
2016-Jan-19 11:31N 40°40' W 074°09'0 0.1
2016-Jan-19 10:33N 40°40' W 074°09'5 4.9
2016-Jan-19 09:33N 40°37' W 074°03'1211.6
2016-Jan-19 08:33N 40°29' W 073°53'  
Track history (hours):
 
Tides and Currents Weather Stations Pressure Air Temp Water Temp Dewpoint Dewpoint Depression Visibility Wind Speed Wind Dir Waves Ship Positions

Lena-s.

Last reported at 2016-Jan-25 23:29 UTC. Time now 2016-Feb-10 20:06 UTC.
Position N 36°57' W 076°20'.
Warning: this ship's position is 15 days out of date.

Length 261 m; draft 9.5 m.

Type: Ship (hazmat cat D). MMSI: 305386000.

Date/timePositionNaut miles runAvg speedWind from/ knotsBaromVisibWave heightAir tempDewpointWater temp
2016-Jan-25 23:29N 36°57' W 076°20'2 0.2
2016-Jan-25 14:12N 36°56' W 076°20'0 0.0
2016-Jan-25 13:24N 36°56' W 076°20'0 0.0
2016-Jan-25 11:19N 36°56' W 076°20'4 5.5
2016-Jan-25 10:31N 36°60' W 076°18'368 7.6
2016-Jan-23 10:11N 31°58' W 080°34'6 9.8
2016-Jan-23 09:34N 31°57' W 080°41'1111.1
2016-Jan-23 08:33N 32°02' W 080°52'9 9.0
2016-Jan-23 07:34N 32°05' W 081°02'5 5.4
2016-Jan-23 06:33N 32°07' W 081°08'1 0.9
2016-Jan-23 05:32N 32°08' W 081°09'0 0.0
2016-Jan-23 04:32N 32°08' W 081°09'0 0.0
2016-Jan-23 03:32N 32°08' W 081°09'0 0.0
2016-Jan-23 02:32N 32°08' W 081°09'0 0.0
2016-Jan-23 01:32N 32°08' W 081°09'0 0.0
2016-Jan-23 00:32N 32°08' W 081°09'0 0.0
2016-Jan-22 23:32N 32°08' W 081°09'0 0.0
2016-Jan-22 22:32N 32°08' W 081°09'0 0.0
2016-Jan-22 21:32N 32°08' W 081°09'0 0.0
2016-Jan-22 20:32N 32°08' W 081°09'0 0.0
2016-Jan-22 19:32N 32°08' W 081°09'0 0.0
2016-Jan-22 18:32N 32°08' W 081°09'0 0.0
2016-Jan-22 17:32N 32°08' W 081°09'0 0.3
2016-Jan-22 16:33N 32°08' W 081°08'3 2.9
2016-Jan-22 15:33N 32°06' W 081°06'6 5.7
2016-Jan-22 14:33N 32°06' W 080°60'1110.7
2016-Jan-22 13:33N 32°01' W 080°48'1211.5
2016-Jan-22 12:33N 31°58' W 080°35'55614.2
2016-Jan-20 21:29N 39°28' W 073°54'1515.7
2016-Jan-20 20:33N 39°43' W 073°53'4212.7
2016-Jan-20 17:14N 40°25' W 073°49'6 8.5
2016-Jan-20 16:33N 40°29' W 073°55'1312.8
2016-Jan-20 15:33N 40°39' W 074°05'3 2.6
2016-Jan-20 14:31N 40°40' W 074°09'0 0.0
2016-Jan-20 13:31N 40°40' W 074°09'0 0.0
2016-Jan-20 12:31N 40°40' W 074°09'0 0.0
2016-Jan-20 11:31N 40°40' W 074°09'0 0.0
2016-Jan-20 10:31N 40°40' W 074°09'0 0.0
2016-Jan-20 09:31N 40°40' W 074°09'0 0.0
2016-Jan-20 08:31N 40°40' W 074°09'0 0.0
2016-Jan-20 07:31N 40°40' W 074°09'0 0.0
2016-Jan-20 06:31N 40°40' W 074°09'0 0.0
2016-Jan-20 05:31N 40°40' W 074°09'0 0.0
2016-Jan-20 04:31N 40°40' W 074°09'0 0.0
2016-Jan-20 03:31N 40°40' W 074°09'0 0.0
2016-Jan-20 02:31N 40°40' W 074°09'0 0.0
2016-Jan-20 01:31N 40°40' W 074°09'0 0.0
2016-Jan-20 00:31N 40°40' W 074°09'0 0.0
2016-Jan-19 23:31N 40°40' W 074°09'0 0.0
2016-Jan-19 22:31N 40°40' W 074°09'0 0.0
2016-Jan-19 21:31N 40°40' W 074°09'0 0.0
2016-Jan-19 20:31N 40°40' W 074°09'0 0.0
2016-Jan-19 19:25N 40°40' W 074°09'0 0.0
2016-Jan-19 18:31N 40°40' W 074°09'0 0.0
2016-Jan-19 17:31N 40°40' W 074°09'0 0.0
2016-Jan-19 16:31N 40°40' W 074°09'0 0.0
2016-Jan-19 15:31N 40°40' W 074°09'0 0.0
2016-Jan-19 14:31N 40°40' W 074°09'0 0.0
2016-Jan-19 13:31N 40°40' W 074°09'0 0.0
2016-Jan-19 12:31N 40°40' W 074°09'0 0.0
2016-Jan-19 11:31N 40°40' W 074°09'0 0.1
2016-Jan-19 10:33N 40°40' W 074°09'5 4.9
2016-Jan-19 09:33N 40°37' W 074°03'1211.6
2016-Jan-19 08:33N 40°29' W 073°53'  

Dump ship's entire track history